createdAt,value
2022-09-12T00:00:41.889Z,100609.00
2022-09-12T00:03:15.679Z,100609.00
2022-09-12T00:05:49.750Z,100611.00
2022-09-12T00:08:25.062Z,100613.00
2022-09-12T00:10:58.361Z,100593.00
2022-09-12T00:13:32.141Z,100611.00
2022-09-12T00:16:06.768Z,100608.00
2022-09-12T00:18:40.326Z,100608.00
2022-09-12T00:21:14.272Z,100613.00
2022-09-12T00:23:49.700Z,100601.00
2022-09-12T00:26:25.896Z,100598.00
2022-09-12T00:28:59.553Z,100587.00
2022-09-12T00:31:33.544Z,100579.00
2022-09-12T00:34:07.489Z,100580.00
2022-09-12T00:36:41.833Z,100582.00
2022-09-12T00:39:19.840Z,100575.00
2022-09-12T00:41:53.229Z,100578.00
2022-09-12T00:44:51.600Z,100566.00
2022-09-12T00:47:30.350Z,100566.00
2022-09-12T00:50:10.659Z,100564.00
2022-09-12T00:52:49.253Z,100555.00
2022-09-12T00:55:30.215Z,100526.00
2022-09-12T00:58:10.688Z,100565.00
2022-09-12T01:00:44.550Z,100552.00
2022-09-12T01:03:21.535Z,100550.00
2022-09-12T01:06:06.134Z,100551.00
2022-09-12T01:08:41.999Z,100546.00
2022-09-12T01:11:19.511Z,100548.00
2022-09-12T01:13:54.675Z,100556.00
2022-09-12T01:16:28.571Z,100556.00
2022-09-12T01:19:35.290Z,100545.00
2022-09-12T01:22:37.870Z,100541.00
2022-09-12T01:25:25.695Z,100550.00
2022-09-12T01:28:41.691Z,100550.00
2022-09-12T01:31:26.845Z,100520.00
2022-09-12T01:34:22.930Z,100531.00
2022-09-12T01:37:09.485Z,100542.00
2022-09-12T01:39:58.125Z,100545.00
2022-09-12T01:42:42.064Z,100553.00
2022-09-12T01:45:23.866Z,100543.00
2022-09-12T01:48:06.985Z,100547.00
2022-09-12T01:50:48.810Z,100539.00
2022-09-12T01:53:28.758Z,100536.00
2022-09-12T01:56:10.849Z,100539.00
2022-09-12T01:58:51.233Z,100540.00
2022-09-12T02:01:29.783Z,100526.00
2022-09-12T02:04:11.897Z,100536.00
2022-09-12T02:06:51.374Z,100532.00
2022-09-12T02:09:30.900Z,100522.00
2022-09-12T02:12:09.325Z,100526.00
2022-09-12T02:14:49.772Z,100531.00
2022-09-12T02:17:27.358Z,100515.00
2022-09-12T02:20:14.590Z,100520.00
2022-09-12T02:22:54.275Z,100514.00
2022-09-12T02:25:30.632Z,100525.00
2022-09-12T02:28:11.717Z,100521.00
2022-09-12T02:30:56.579Z,100511.00
2022-09-12T02:33:40.443Z,100504.00
2022-09-12T02:36:36.558Z,100521.00
2022-09-12T02:39:10.294Z,100507.00
2022-09-12T02:41:43.978Z,100501.00
2022-09-12T02:44:17.936Z,100509.00
2022-09-12T02:46:57.043Z,100510.00
2022-09-12T02:49:31.060Z,100505.00
2022-09-12T02:52:06.604Z,100483.00
2022-09-12T02:54:40.708Z,100489.00
2022-09-12T02:57:22.546Z,100489.00
2022-09-12T03:00:02.234Z,100493.00
2022-09-12T03:02:59.911Z,100461.00
2022-09-12T03:05:36.385Z,100462.00
2022-09-12T03:08:54.216Z,100476.00
2022-09-12T03:12:00.558Z,100484.00
2022-09-12T03:15:09.349Z,100502.00
2022-09-12T03:18:06.444Z,100492.00
2022-09-12T03:20:52.210Z,100476.00
2022-09-12T03:23:34.238Z,100481.00
2022-09-12T03:26:17.975Z,100482.00
2022-09-12T03:28:53.228Z,100480.00
2022-09-12T03:31:27.747Z,100466.00
2022-09-12T03:34:01.991Z,100487.00
2022-09-12T03:36:35.442Z,100483.00
2022-09-12T03:39:09.103Z,100475.00
2022-09-12T03:41:44.084Z,100452.00
2022-09-12T03:44:17.676Z,100470.00
2022-09-12T03:46:52.136Z,100475.00
2022-09-12T03:49:25.532Z,100470.00
2022-09-12T03:51:58.828Z,100478.00
2022-09-12T03:54:32.481Z,100474.00
2022-09-12T03:57:07.690Z,100475.00
2022-09-12T03:59:41.249Z,100473.00
2022-09-12T04:02:14.950Z,100472.00
2022-09-12T04:04:49.250Z,100476.00
2022-09-12T04:07:22.720Z,100487.00
2022-09-12T04:09:56.332Z,100476.00
2022-09-12T04:12:32.354Z,100457.00
2022-09-12T04:15:07.568Z,100465.00
2022-09-12T04:17:40.822Z,100476.00
2022-09-12T04:20:14.194Z,100483.00
2022-09-12T04:22:47.547Z,100476.00
2022-09-12T04:25:20.839Z,100477.00
2022-09-12T04:27:55.592Z,100456.00
2022-09-12T04:30:29.154Z,100441.00
2022-09-12T04:33:07.437Z,100485.00
2022-09-12T04:35:41.751Z,100465.00
2022-09-12T04:38:15.661Z,100470.00
2022-09-12T04:40:49.075Z,100466.00
2022-09-12T04:43:23.777Z,100468.00
2022-09-12T04:45:57.513Z,100465.00
2022-09-12T04:48:31.003Z,100443.00
2022-09-12T04:51:13.699Z,100465.00
2022-09-12T04:53:52.058Z,100460.00
2022-09-12T04:56:27.099Z,100460.00
2022-09-12T04:59:02.900Z,100454.00
2022-09-12T05:01:37.213Z,100451.00
2022-09-12T05:04:13.053Z,100455.00
2022-09-12T05:06:47.484Z,100448.00
2022-09-12T05:09:21.131Z,100445.00
2022-09-12T05:12:09.935Z,100443.00
2022-09-12T05:14:45.070Z,100450.00
2022-09-12T05:17:19.173Z,100443.00
2022-09-12T05:19:52.730Z,100443.00
2022-09-12T05:22:26.189Z,100450.00
2022-09-12T05:24:59.554Z,100438.00
2022-09-12T05:27:32.917Z,100413.00
2022-09-12T05:30:10.532Z,100442.00
2022-09-12T05:32:44.283Z,100427.00
2022-09-12T05:35:18.493Z,100421.00
2022-09-12T05:37:52.077Z,100410.00
2022-09-12T05:40:25.632Z,100417.00
2022-09-12T05:42:59.343Z,100422.00
2022-09-12T05:45:34.742Z,100387.00
2022-09-12T05:48:08.196Z,100429.00
2022-09-12T05:50:44.977Z,100364.00
2022-09-12T05:53:19.957Z,100420.00
2022-09-12T05:56:05.299Z,100431.00
2022-09-12T05:58:41.463Z,100430.00
2022-09-12T06:01:19.946Z,100440.00
2022-09-12T06:03:56.545Z,100445.00
2022-09-12T06:06:33.088Z,100443.00
2022-09-12T06:09:08.040Z,100449.00
2022-09-12T06:11:42.938Z,100451.00
2022-09-12T06:14:19.548Z,100450.00
2022-09-12T06:16:54.937Z,100449.00
2022-09-12T06:19:28.553Z,100444.00
2022-09-12T06:22:01.915Z,100455.00
2022-09-12T06:24:35.731Z,100452.00
2022-09-12T06:27:09.230Z,100441.00
2022-09-12T06:29:42.604Z,100436.00
2022-09-12T06:32:17.638Z,100458.00
2022-09-12T06:34:53.091Z,100458.00
2022-09-12T06:37:26.645Z,100460.00
2022-09-12T06:40:02.049Z,100445.00
2022-09-12T06:42:35.858Z,100455.00
2022-09-12T06:45:11.629Z,100453.00
2022-09-12T06:47:46.516Z,100459.00
2022-09-12T06:50:20.130Z,100442.00
2022-09-12T06:52:54.120Z,100412.00
2022-09-12T06:55:28.229Z,100443.00
2022-09-12T06:58:01.603Z,100411.00
2022-09-12T07:00:37.485Z,100436.00
2022-09-12T07:03:12.448Z,100443.00
2022-09-12T07:05:46.830Z,100429.00
2022-09-12T07:08:20.843Z,100462.00
2022-09-12T07:10:54.945Z,100453.00
2022-09-12T07:13:28.803Z,100456.00
2022-09-12T07:16:03.635Z,100447.00
2022-09-12T07:18:40.527Z,100443.00
2022-09-12T07:21:16.399Z,100457.00
2022-09-12T07:23:51.851Z,100469.00
2022-09-12T07:26:27.970Z,100464.00
2022-09-12T07:29:25.224Z,100475.00
2022-09-12T07:31:55.856Z,100472.00
2022-09-12T07:34:30.728Z,100444.00
2022-09-12T07:37:04.320Z,100471.00
2022-09-12T07:39:37.948Z,100461.00
2022-09-12T07:42:11.519Z,100452.00
2022-09-12T07:44:45.811Z,100435.00
2022-09-12T07:47:20.589Z,100443.00
2022-09-12T07:49:55.519Z,100446.00
2022-09-12T07:52:29.538Z,100435.00
2022-09-12T07:55:03.169Z,100453.00
2022-09-12T07:57:36.692Z,100447.00
2022-09-12T08:00:11.910Z,100446.00
2022-09-12T08:02:45.642Z,100445.00
2022-09-12T08:05:21.077Z,100452.00
2022-09-12T08:07:57.647Z,100458.00
2022-09-12T08:10:32.818Z,100452.00
2022-09-12T08:13:06.391Z,100459.00
2022-09-12T08:15:40.383Z,100459.00
2022-09-12T08:18:14.292Z,100466.00
2022-09-12T08:20:50.052Z,100485.00
2022-09-12T08:23:24.716Z,100477.00
2022-09-12T08:26:02.184Z,100451.00
2022-09-12T08:28:40.472Z,100479.00
2022-09-12T08:31:18.272Z,100476.00
2022-09-12T08:33:52.752Z,100474.00
2022-09-12T08:36:30.067Z,100467.00
2022-09-12T08:39:07.171Z,100460.00
2022-09-12T08:41:45.389Z,100465.00
2022-09-12T08:44:48.943Z,100465.00
2022-09-12T08:47:31.577Z,100471.00
2022-09-12T08:50:15.797Z,100468.00
2022-09-12T08:52:59.277Z,100467.00
2022-09-12T08:55:38.207Z,100470.00
2022-09-12T08:58:17.271Z,100472.00
2022-09-12T09:01:03.396Z,100471.00
2022-09-12T09:04:17.482Z,100458.00
2022-09-12T09:07:29.966Z,100457.00
2022-09-12T09:10:24.188Z,100459.00
2022-09-12T09:13:13.124Z,100466.00
2022-09-12T09:16:03.292Z,100445.00
2022-09-12T09:18:38.394Z,100469.00
2022-09-12T09:21:25.102Z,100464.00
2022-09-12T09:24:06.557Z,100461.00
2022-09-12T09:26:51.086Z,100473.00
2022-09-12T09:29:33.827Z,100424.00
2022-09-12T09:32:19.774Z,100465.00
2022-09-12T09:34:53.235Z,100465.00
2022-09-12T09:37:38.676Z,100466.00
2022-09-12T09:40:25.972Z,100454.00
2022-09-12T09:43:08.075Z,100439.00
2022-09-12T09:45:45.783Z,100457.00
2022-09-12T09:48:28.254Z,100459.00
2022-09-12T09:51:05.274Z,100450.00
2022-09-12T09:53:48.772Z,100454.00
2022-09-12T09:56:30.529Z,100454.00
2022-09-12T09:59:19.821Z,100437.00
2022-09-12T10:01:58.363Z,100439.00
2022-09-12T10:04:40.594Z,100446.00
2022-09-12T10:07:21.750Z,100445.00
2022-09-12T10:10:15.585Z,100437.00
2022-09-12T10:12:51.177Z,100436.00
2022-09-12T10:15:28.914Z,100436.00
2022-09-12T10:18:03.200Z,100433.00
2022-09-12T10:20:41.791Z,100421.00
2022-09-12T10:23:34.937Z,100434.00
2022-09-12T10:26:14.650Z,100426.00
2022-09-12T10:28:54.058Z,100421.00
2022-09-12T10:31:39.388Z,100420.00
2022-09-12T10:34:26.651Z,100427.00
2022-09-12T10:37:07.442Z,100417.00
2022-09-12T10:39:41.224Z,100424.00
2022-09-12T10:42:21.556Z,100344.00
2022-09-12T10:44:57.093Z,100404.00
2022-09-12T10:47:33.687Z,100416.00
2022-09-12T10:50:32.400Z,100407.00
2022-09-12T10:53:20.682Z,100409.00
2022-09-12T10:56:12.079Z,100400.00
2022-09-12T10:59:08.358Z,100411.00
2022-09-12T11:01:46.023Z,100404.00
2022-09-12T11:04:37.433Z,100403.00
2022-09-12T11:07:50.070Z,100399.00
2022-09-12T11:10:43.760Z,100390.00
2022-09-12T11:13:34.153Z,100392.00
2022-09-12T11:16:23.139Z,100399.00
2022-09-12T11:19:35.352Z,100385.00
2022-09-12T11:22:41.814Z,100395.00
2022-09-12T11:25:31.903Z,100388.00
2022-09-12T11:28:29.688Z,100383.00
2022-09-12T11:31:31.979Z,100378.00
2022-09-12T11:34:12.101Z,100380.00
2022-09-12T11:37:16.198Z,100371.00
2022-09-12T11:39:55.853Z,100371.00
2022-09-12T11:42:36.315Z,100370.00
2022-09-12T11:45:18.633Z,100372.00
2022-09-12T11:48:08.817Z,100376.00
2022-09-12T11:50:42.944Z,100371.00
2022-09-12T11:53:26.649Z,100366.00
2022-09-12T11:56:09.414Z,100353.00
2022-09-12T11:58:47.506Z,100348.00
2022-09-12T12:01:28.845Z,100357.00
2022-09-12T12:04:10.075Z,100360.00
2022-09-12T12:06:56.534Z,100367.00
2022-09-12T12:09:50.632Z,100360.00
2022-09-12T12:12:30.276Z,100345.00
2022-09-12T12:15:04.422Z,100345.00
2022-09-12T12:17:39.171Z,100343.00
2022-09-12T12:20:19.512Z,100347.00
2022-09-12T12:22:55.183Z,100346.00
2022-09-12T12:25:43.344Z,100350.00
2022-09-12T12:29:01.897Z,100350.00
2022-09-12T12:32:25.653Z,100337.00
2022-09-12T12:35:41.632Z,100339.00
2022-09-12T12:38:32.655Z,100331.00
2022-09-12T12:41:47.537Z,100326.00
2022-09-12T12:44:52.908Z,100326.00
2022-09-12T12:47:33.484Z,100324.00
2022-09-12T12:50:16.037Z,100316.00
2022-09-12T12:52:54.366Z,100318.00
2022-09-12T12:55:38.683Z,100315.00
2022-09-12T12:58:34.611Z,100314.00
2022-09-12T13:01:16.735Z,100305.00
2022-09-12T13:04:00.685Z,100297.00
2022-09-12T13:06:58.386Z,100292.00
2022-09-12T13:09:39.815Z,100290.00
2022-09-12T13:12:22.259Z,100291.00
2022-09-12T13:14:59.387Z,100287.00
2022-09-12T13:17:39.379Z,100292.00
2022-09-12T13:20:28.701Z,100289.00
2022-09-12T13:23:02.956Z,100284.00
2022-09-12T13:25:38.433Z,100282.00
2022-09-12T13:28:18.999Z,100289.00
2022-09-12T13:31:03.893Z,100281.00
2022-09-12T13:33:43.395Z,100271.00
2022-09-12T13:36:51.184Z,100272.00
2022-09-12T13:39:30.024Z,100275.00
2022-09-12T13:42:42.692Z,100270.00
2022-09-12T13:45:22.779Z,100270.00
2022-09-12T13:48:02.541Z,100256.00
2022-09-12T13:50:46.207Z,100269.00
2022-09-12T13:53:25.177Z,100263.00
2022-09-12T13:56:01.339Z,100253.00
2022-09-12T13:58:36.049Z,100263.00
2022-09-12T14:01:16.127Z,100258.00
2022-09-12T14:04:16.692Z,100258.00
2022-09-12T14:06:52.930Z,100265.00
2022-09-12T14:09:31.241Z,100256.00
2022-09-12T14:12:05.741Z,100265.00
2022-09-12T14:14:44.030Z,100257.00
2022-09-12T14:17:21.891Z,100260.00
2022-09-12T14:19:59.835Z,100254.00
2022-09-12T14:22:35.800Z,100231.00
2022-09-12T14:25:17.360Z,100248.00
2022-09-12T14:27:54.955Z,100239.00
2022-09-12T14:30:32.174Z,100238.00
2022-09-12T14:33:19.955Z,100240.00
2022-09-12T14:36:18.579Z,100226.00
2022-09-12T14:38:57.211Z,100207.00
2022-09-12T14:41:36.922Z,100230.00
2022-09-12T14:44:19.262Z,100218.00
2022-09-12T14:46:53.591Z,100216.00
2022-09-12T14:49:34.482Z,100212.00
2022-09-12T14:52:25.390Z,100211.00
2022-09-12T14:55:02.191Z,100206.00
2022-09-12T14:57:41.086Z,100196.00
2022-09-12T15:00:24.296Z,100212.00
2022-09-12T15:03:25.265Z,100201.00
2022-09-12T15:06:00.264Z,100204.00
2022-09-12T15:08:35.426Z,100187.00
2022-09-12T15:11:08.820Z,100201.00
2022-09-12T15:13:43.387Z,100190.00
2022-09-12T15:16:17.170Z,100183.00
2022-09-12T15:18:50.650Z,100183.00
2022-09-12T15:21:24.418Z,100186.00
2022-09-12T15:23:59.211Z,100184.00
2022-09-12T15:26:32.659Z,100194.00
2022-09-12T15:29:05.999Z,100176.00
2022-09-12T15:31:41.716Z,100191.00
2022-09-12T15:34:15.506Z,100165.00
2022-09-12T15:36:50.164Z,100177.00
2022-09-12T15:39:40.515Z,100183.00
2022-09-12T15:42:15.552Z,100174.00
2022-09-12T15:44:48.876Z,100176.00
2022-09-12T15:47:23.086Z,100185.00
2022-09-12T15:49:56.420Z,100169.00
2022-09-12T15:52:30.319Z,100171.00
2022-09-12T15:55:06.226Z,100152.00
2022-09-12T15:57:40.446Z,100170.00
2022-09-12T16:00:16.244Z,100160.00
2022-09-12T16:02:52.803Z,100162.00
2022-09-12T16:05:28.108Z,100158.00
2022-09-12T16:08:01.394Z,100166.00
2022-09-12T16:10:37.212Z,100158.00
2022-09-12T16:13:10.721Z,100155.00
2022-09-12T16:15:44.108Z,100152.00
2022-09-12T16:18:17.866Z,100144.00
2022-09-12T16:20:54.323Z,100139.00
2022-09-12T16:23:28.046Z,100142.00
2022-09-12T16:26:06.041Z,100133.00
2022-09-12T16:28:39.541Z,100128.00
2022-09-12T16:31:15.246Z,100127.00
2022-09-12T16:33:48.881Z,100116.00
2022-09-12T16:36:24.079Z,100119.00
2022-09-12T16:38:57.513Z,100108.00
2022-09-12T16:41:32.280Z,100110.00
2022-09-12T16:44:05.538Z,100123.00
2022-09-12T16:46:38.907Z,100107.00
2022-09-12T16:49:13.692Z,100114.00
2022-09-12T16:51:47.638Z,100104.00
2022-09-12T16:54:21.813Z,100110.00
2022-09-12T16:56:56.517Z,100112.00
2022-09-12T16:59:29.931Z,100112.00
2022-09-12T17:02:03.500Z,100109.00
2022-09-12T17:04:37.180Z,100113.00
2022-09-12T17:07:11.094Z,100087.00
2022-09-12T17:09:47.863Z,100084.00
2022-09-12T17:12:24.049Z,100100.00
2022-09-12T17:14:58.344Z,100101.00
2022-09-12T17:18:00.156Z,100101.00
2022-09-12T17:20:36.790Z,100098.00
2022-09-12T17:23:10.176Z,100096.00
2022-09-12T17:25:48.366Z,100094.00
2022-09-12T17:28:23.278Z,100081.00
2022-09-12T17:30:57.833Z,100100.00
2022-09-12T17:33:32.074Z,100091.00
2022-09-12T17:36:08.242Z,100083.00
2022-09-12T17:38:42.245Z,100083.00
2022-09-12T17:41:18.593Z,100080.00
2022-09-12T17:43:57.319Z,100080.00
2022-09-12T17:46:35.047Z,100081.00
2022-09-12T17:49:13.988Z,100083.00
2022-09-12T17:51:47.439Z,100081.00
2022-09-12T17:54:22.235Z,100091.00
2022-09-12T17:56:56.841Z,100081.00
2022-09-12T17:59:31.714Z,100091.00
2022-09-12T18:02:13.351Z,100084.00
2022-09-12T18:04:48.509Z,100088.00
2022-09-12T18:07:22.203Z,100074.00
2022-09-12T18:09:55.479Z,100070.00
2022-09-12T18:12:28.776Z,100074.00
2022-09-12T18:15:03.419Z,100063.00
2022-09-12T18:17:36.768Z,100063.00
2022-09-12T18:20:10.745Z,100069.00
2022-09-12T18:22:44.131Z,100066.00
2022-09-12T18:25:18.275Z,100064.00
2022-09-12T18:27:51.779Z,100079.00
2022-09-12T18:30:26.818Z,100068.00
2022-09-12T18:33:00.788Z,100074.00
2022-09-12T18:35:34.439Z,100081.00
2022-09-12T18:38:07.839Z,100058.00
2022-09-12T18:40:41.335Z,100069.00
2022-09-12T18:43:15.038Z,100059.00
2022-09-12T18:45:49.988Z,100053.00
2022-09-12T18:48:23.382Z,100051.00
2022-09-12T18:51:05.840Z,100062.00
2022-09-12T18:53:40.384Z,100062.00
2022-09-12T18:56:15.317Z,100060.00
2022-09-12T18:58:53.584Z,100066.00
2022-09-12T19:01:30.937Z,100067.00
2022-09-12T19:04:06.133Z,100055.00
2022-09-12T19:06:43.415Z,100048.00
2022-09-12T19:09:21.764Z,100056.00
2022-09-12T19:11:55.157Z,100048.00
2022-09-12T19:14:28.736Z,100053.00
2022-09-12T19:17:03.501Z,100033.00
2022-09-12T19:19:40.488Z,100040.00
2022-09-12T19:22:14.028Z,100035.00
2022-09-12T19:24:47.854Z,100024.00
2022-09-12T19:27:21.329Z,100018.00
2022-09-12T19:29:54.837Z,100021.00
2022-09-12T19:32:29.534Z,100022.00
2022-09-12T19:35:03.277Z,100010.00
2022-09-12T19:37:36.668Z,100020.00
2022-09-12T19:40:10.846Z,100010.00
2022-09-12T19:42:44.208Z,100024.00
2022-09-12T19:45:17.869Z,100038.00
2022-09-12T19:47:52.896Z,100038.00
2022-09-12T19:50:26.430Z,100031.00
2022-09-12T19:52:59.814Z,100032.00
2022-09-12T19:55:33.127Z,100033.00
2022-09-12T19:58:07.334Z,100022.00
2022-09-12T20:00:40.872Z,100029.00
2022-09-12T20:03:15.527Z,100028.00
2022-09-12T20:05:48.857Z,100025.00
2022-09-12T20:08:22.290Z,100022.00
2022-09-12T20:10:57.314Z,100020.00
2022-09-12T20:13:30.818Z,100021.00
2022-09-12T20:16:12.077Z,100014.00
2022-09-12T20:18:47.710Z,100011.00
2022-09-12T20:21:25.089Z,100021.00
2022-09-12T20:24:02.950Z,100017.00
2022-09-12T20:26:36.795Z,100012.00
2022-09-12T20:29:26.710Z,100015.00
2022-09-12T20:32:01.118Z,100011.00
2022-09-12T20:34:36.168Z,99996.00
2022-09-12T20:37:09.780Z,100007.00
2022-09-12T20:39:44.006Z,100001.00
2022-09-12T20:42:18.497Z,100008.00
2022-09-12T20:44:52.565Z,99997.00
2022-09-12T20:47:25.911Z,99991.00
2022-09-12T20:50:02.169Z,99997.00
2022-09-12T20:52:36.055Z,99990.00
2022-09-12T20:55:11.237Z,99992.00
2022-09-12T20:57:44.512Z,99991.00
2022-09-12T21:00:18.684Z,99975.00
2022-09-12T21:02:53.030Z,99967.00
2022-09-12T21:05:27.864Z,99957.00
2022-09-12T21:08:02.519Z,99958.00
2022-09-12T21:10:36.621Z,99953.00
2022-09-12T21:13:10.984Z,99936.00
2022-09-12T21:15:45.052Z,99933.00
2022-09-12T21:18:18.654Z,99933.00
2022-09-12T21:21:04.570Z,99926.00
2022-09-12T21:23:38.569Z,99935.00
2022-09-12T21:26:12.159Z,99936.00
2022-09-12T21:28:45.710Z,99937.00
2022-09-12T21:31:19.112Z,99941.00
2022-09-12T21:33:52.645Z,99942.00
2022-09-12T21:36:27.560Z,99940.00
2022-09-12T21:39:01.033Z,99940.00
2022-09-12T21:41:34.366Z,99927.00
2022-09-12T21:44:08.090Z,99930.00
2022-09-12T21:46:41.611Z,99933.00
2022-09-12T21:49:14.955Z,99940.00
2022-09-12T21:51:49.781Z,99934.00
2022-09-12T21:54:23.210Z,99943.00
2022-09-12T21:56:56.853Z,99943.00
2022-09-12T21:59:30.367Z,99952.00
2022-09-12T22:02:04.477Z,99949.00
2022-09-12T22:04:38.008Z,99962.00
2022-09-12T22:07:12.686Z,99954.00
2022-09-12T22:09:46.162Z,99954.00
2022-09-12T22:12:20.634Z,99946.00
2022-09-12T22:14:55.411Z,99936.00
2022-09-12T22:17:28.855Z,99942.00
2022-09-12T22:20:02.383Z,99946.00
2022-09-12T22:22:55.962Z,99950.00
2022-09-12T22:25:29.588Z,99964.00
2022-09-12T22:28:03.419Z,99939.00
2022-09-12T22:30:36.790Z,99963.00
2022-09-12T22:33:10.336Z,99968.00
2022-09-12T22:35:44.191Z,99968.00
2022-09-12T22:38:18.881Z,99963.00
2022-09-12T22:40:52.286Z,99944.00
2022-09-12T22:43:26.016Z,99953.00
2022-09-12T22:45:59.677Z,99951.00
2022-09-12T22:48:33.024Z,99956.00
2022-09-12T22:51:08.028Z,99955.00
2022-09-12T22:53:43.341Z,99950.00
2022-09-12T22:56:16.807Z,99953.00
2022-09-12T22:58:50.848Z,99959.00
2022-09-12T23:01:25.986Z,99949.00
2022-09-12T23:03:59.755Z,99962.00
2022-09-12T23:06:33.181Z,99960.00
2022-09-12T23:09:08.003Z,99955.00
2022-09-12T23:11:41.361Z,99959.00
2022-09-12T23:14:14.965Z,99955.00
2022-09-12T23:16:48.310Z,99960.00
2022-09-12T23:19:21.974Z,99966.00
2022-09-12T23:21:55.232Z,99968.00
2022-09-12T23:24:29.932Z,99966.00
2022-09-12T23:27:03.221Z,99969.00
2022-09-12T23:29:36.597Z,99969.00
2022-09-12T23:32:10.636Z,99946.00
2022-09-12T23:34:46.409Z,99953.00
2022-09-12T23:37:21.769Z,99939.00
2022-09-12T23:39:56.748Z,99946.00
2022-09-12T23:42:30.354Z,99940.00
2022-09-12T23:45:03.717Z,99938.00
2022-09-12T23:47:37.389Z,99939.00
2022-09-12T23:50:11.069Z,99934.00
2022-09-12T23:52:44.267Z,99941.00
2022-09-12T23:55:19.095Z,99929.00
2022-09-12T23:57:52.429Z,99937.00
